Terminal Aerodrome Forecast
Issued by NWS Rapid City, SD

Home | Current Version | Previous Version | Graphics & Text | Print | Product List | Glossary On
Versions: 1 2 3 4 5 6 7 8 9 10 11 12 13 14 15 16 17 18 19
275
FTUS43 KUNR 292320
TAFRAP
TAF
KRAP 292320Z 3000/3024 33030G47KT 5SM -SN BKN020 OVC100
     FM300500 33025G40KT 5SM -SN BKN020 OVC100
     FM301500 33025G35KT P6SM BKN040=

USA.gov is the U.S. government's official web portal to all federal, state and local government web resources and services.